Time;durP1;ratioP1;P1;durP2;ratioP2;P2;SDS_P1;SDS_P2;PMS_P1;PMS_P2;Temp;Humidity;BMP_temperature;BMP_pressure;BME280_temperature;BME280_humidity;BME280_pressure;Samples;Min_cycle;Max_cycle;Signal;HPM_P1;HPM_P2
2023/07/15 00:01:34;;;;;;;8.00;4.32;;;19.80;99.90;;;;;;7374049;19;20018;-65
2023/07/15 00:04:02;;;;;;;6.38;4.05;;;19.70;99.90;;;;;;7365606;19;20046;-58
2023/07/15 00:06:29;;;;;;;7.78;4.10;;;19.70;99.90;;;;;;7371467;19;20628;-65
2023/07/15 00:08:56;;;;;;;7.65;4.35;;;19.70;99.90;;;;;;7370907;19;20405;-65
2023/07/15 00:11:31;;;;;;;7.85;4.63;;;19.70;99.90;;;;;;7369297;19;20016;-66
2023/07/15 00:13:59;;;;;;;8.15;3.90;;;19.70;99.90;;;;;;7371025;19;20015;-66
2023/07/15 00:16:30;;;;;;;6.63;4.03;;;19.70;99.90;;;;;;7371456;19;20038;-65
2023/07/15 00:18:58;;;;;;;6.75;4.30;;;19.70;99.90;;;;;;7378917;19;20022;-65
2023/07/15 00:21:30;;;;;;;6.78;3.97;;;19.70;99.90;;;;;;7379012;19;20011;-65
2023/07/15 00:23:57;;;;;;;7.18;3.80;;;19.70;99.90;;;;;;7377580;19;20560;-66
2023/07/15 00:26:26;;;;;;;8.15;4.43;;;19.70;99.90;;;;;;7376034;19;20014;-57
2023/07/15 00:28:57;;;;;;;7.43;4.13;;;19.70;99.90;;;;;;7377612;19;20022;-58
2023/07/15 00:31:24;;;;;;;6.80;3.83;;;19.70;99.90;;;;;;7378656;19;20045;-58
2023/07/15 00:33:50;;;;;;;6.18;3.80;;;19.70;99.90;;;;;;7368021;19;20514;-58
2023/07/15 00:36:17;;;;;;;6.00;3.42;;;19.60;99.90;;;;;;7375587;19;20093;-58
2023/07/15 00:38:44;;;;;;;6.22;3.80;;;19.60;99.90;;;;;;7373178;19;20029;-59
2023/07/15 00:41:14;;;;;;;6.57;3.63;;;19.60;99.90;;;;;;7374411;19;20022;-58
2023/07/15 00:43:58;;;;;;;7.60;4.00;;;19.60;99.90;;;;;;7371537;19;20366;-65
2023/07/15 00:46:56;;;;;;;10.18;3.97;;;19.70;99.90;;;;;;7373371;19;20018;-64
2023/07/15 00:49:35;;;;;;;8.02;3.78;;;19.70;99.90;;;;;;7376931;19;20018;-65
2023/07/15 00:52:10;;;;;;;7.22;3.75;;;19.60;99.90;;;;;;7373756;19;20482;-65
2023/07/15 00:54:53;;;;;;;9.02;3.70;;;19.70;99.90;;;;;;7370757;19;20018;-65
2023/07/15 00:57:21;;;;;;;7.25;3.92;;;19.60;99.90;;;;;;7374638;19;20604;-65
2023/07/15 00:59:52;;;;;;;5.95;3.70;;;19.60;99.90;;;;;;7374256;19;20346;-65
2023/07/15 01:02:20;;;;;;;6.05;3.65;;;19.60;99.90;;;;;;7378075;19;20022;-58
2023/07/15 01:04:47;;;;;;;9.07;4.07;;;19.60;99.90;;;;;;7374955;19;20484;-65
2023/07/15 01:07:15;;;;;;;4.97;3.33;;;19.60;99.90;;;;;;7374524;19;20015;-65
2023/07/15 01:09:41;;;;;;;5.57;3.28;;;19.60;99.90;;;;;;7370096;19;20011;-65
2023/07/15 01:12:08;;;;;;;5.82;3.75;;;19.60;99.90;;;;;;7372888;19;20056;-65
2023/07/15 01:14:36;;;;;;;7.68;4.00;;;19.60;99.90;;;;;;7376232;19;20021;-64
2023/07/15 01:17:02;;;;;;;8.13;3.63;;;19.60;99.90;;;;;;7374774;19;20082;-65
2023/07/15 01:19:29;;;;;;;7.07;4.28;;;19.60;99.90;;;;;;7373364;19;20018;-65
2023/07/15 01:21:56;;;;;;;5.30;3.33;;;19.60;99.90;;;;;;7373947;19;20034;-65
2023/07/15 01:24:25;;;;;;;7.85;3.50;;;19.60;99.90;;;;;;7374182;19;20579;-64
2023/07/15 01:26:57;;;;;;;6.97;3.55;;;19.50;99.90;;;;;;7372342;19;20041;-65
2023/07/15 01:29:25;;;;;;;6.15;3.38;;;19.60;99.90;;;;;;7369709;19;20029;-65
2023/07/15 01:31:52;;;;;;;7.28;3.50;;;19.60;99.90;;;;;;7373871;19;20082;-65
2023/07/15 01:34:19;;;;;;;7.10;3.40;;;19.50;99.90;;;;;;7376440;19;20026;-65
2023/07/15 01:36:46;;;;;;;5.63;3.55;;;19.50;99.90;;;;;;7372937;19;20023;-65
2023/07/15 01:39:15;;;;;;;9.07;3.38;;;19.50;99.90;;;;;;7373923;19;20377;-65
2023/07/15 01:41:44;;;;;;;6.55;3.53;;;19.50;99.90;;;;;;7372289;19;20026;-66
2023/07/15 01:44:10;;;;;;;9.32;4.00;;;19.50;99.90;;;;;;7372668;19;20018;-65
2023/07/15 01:46:39;;;;;;;6.78;3.38;;;19.40;99.90;;;;;;7373188;19;20018;-66
2023/07/15 01:49:08;;;;;;;8.77;3.20;;;19.50;99.90;;;;;;7374130;19;20018;-65
2023/07/15 01:51:35;;;;;;;6.20;3.45;;;19.40;99.90;;;;;;7369033;19;20407;-65
2023/07/15 01:54:02;;;;;;;4.97;2.97;;;19.50;99.90;;;;;;7372710;19;20366;-64
2023/07/15 01:56:29;;;;;;;6.93;4.00;;;19.50;99.90;;;;;;7367387;19;20909;-64
2023/07/15 01:58:55;;;;;;;4.95;3.17;;;19.50;99.90;;;;;;7373054;19;20026;-64
2023/07/15 02:01:22;;;;;;;7.55;3.50;;;19.50;99.90;;;;;;7370064;19;20022;-65
2023/07/15 02:03:49;;;;;;;7.18;3.38;;;19.50;99.90;;;;;;7373013;19;20019;-65
2023/07/15 02:06:16;;;;;;;6.57;3.47;;;19.40;99.90;;;;;;7373590;19;20018;-65
2023/07/15 02:08:45;;;;;;;6.07;3.40;;;19.30;99.90;;;;;;7375795;19;20381;-64
2023/07/15 02:11:12;;;;;;;9.52;3.78;;;19.20;99.90;;;;;;7374803;19;20018;-64
2023/07/15 02:13:39;;;;;;;7.22;3.28;;;19.20;99.90;;;;;;7374068;19;20164;-64
2023/07/15 02:16:06;;;;;;;5.47;3.10;;;19.20;99.90;;;;;;7370909;19;20029;-58
2023/07/15 02:18:32;;;;;;;6.55;3.28;;;19.10;99.90;;;;;;7377056;19;20022;-58
2023/07/15 02:21:01;;;;;;;6.43;3.20;;;19.00;99.90;;;;;;7372352;19;20022;-64
2023/07/15 02:23:29;;;;;;;6.63;3.25;;;19.00;99.90;;;;;;7375838;19;20022;-58
2023/07/15 02:25:56;;;;;;;7.68;4.22;;;18.90;99.90;;;;;;7375980;19;20063;-57
2023/07/15 02:28:26;;;;;;;6.03;3.63;;;18.80;99.90;;;;;;7378361;19;20018;-64
2023/07/15 02:30:55;;;;;;;6.25;3.50;;;18.80;99.90;;;;;;7374444;19;20493;-57
2023/07/15 02:33:23;;;;;;;5.57;3.70;;;18.80;99.90;;;;;;7374300;19;20018;-58
2023/07/15 02:35:50;;;;;;;6.60;3.70;;;18.80;99.90;;;;;;7369342;19;20517;-64
2023/07/15 02:38:16;;;;;;;6.25;3.22;;;18.80;99.90;;;;;;7374047;19;20492;-64
2023/07/15 02:40:42;;;;;;;4.78;3.05;;;18.90;99.90;;;;;;7372866;19;20568;-65
2023/07/15 02:43:09;;;;;;;5.13;3.17;;;18.90;99.90;;;;;;7372177;19;20018;-64
2023/07/15 02:45:35;;;;;;;5.90;3.88;;;18.90;99.90;;;;;;7375537;19;20022;-64
2023/07/15 02:48:01;;;;;;;6.95;3.80;;;18.80;99.90;;;;;;7372809;19;20367;-58
2023/07/15 02:50:27;;;;;;;6.80;3.38;;;18.70;99.90;;;;;;7373655;19;20030;-57
2023/07/15 02:52:54;;;;;;;5.05;2.97;;;18.70;99.90;;;;;;7367930;19;20027;-58
2023/07/15 02:55:20;;;;;;;4.95;3.40;;;18.60;99.90;;;;;;7372775;19;20425;-58
2023/07/15 02:57:47;;;;;;;7.68;3.80;;;18.50;99.90;;;;;;7373372;19;20342;-57
2023/07/15 03:00:15;;;;;;;5.60;2.90;;;18.50;99.90;;;;;;7366563;19;20019;-57
2023/07/15 03:02:47;;;;;;;7.70;3.45;;;18.40;99.90;;;;;;7366598;19;21514;-57
2023/07/15 03:05:15;;;;;;;6.75;3.42;;;18.40;99.90;;;;;;7371660;19;20433;-57
2023/07/15 03:07:44;;;;;;;6.03;3.17;;;18.40;99.90;;;;;;7370026;19;20035;-58
2023/07/15 03:10:13;;;;;;;5.70;3.28;;;18.40;99.90;;;;;;7374162;19;20082;-58
2023/07/15 03:12:39;;;;;;;4.45;2.97;;;18.40;99.90;;;;;;7372278;19;20505;-58
2023/07/15 03:15:06;;;;;;;5.55;3.17;;;18.40;99.90;;;;;;7369825;19;20023;-58
2023/07/15 03:17:35;;;;;;;9.98;3.00;;;18.40;99.90;;;;;;7369701;19;20409;-58
2023/07/15 03:20:19;;;;;;;9.13;3.50;;;18.40;99.90;;;;;;7375613;19;20019;-58
2023/07/15 03:22:47;;;;;;;9.10;3.35;;;18.30;99.90;;;;;;7369698;19;21343;-58
2023/07/15 03:25:14;;;;;;;5.75;2.78;;;18.30;99.90;;;;;;7367710;19;20508;-59
2023/07/15 03:27:41;;;;;;;4.70;2.92;;;18.20;99.90;;;;;;7368548;19;20110;-58
2023/07/15 03:30:08;;;;;;;6.65;3.45;;;18.20;99.90;;;;;;7367110;19;20932;-65
2023/07/15 03:32:36;;;;;;;8.68;3.88;;;18.20;99.90;;;;;;7373616;19;20026;-65
2023/07/15 03:35:04;;;;;;;4.93;3.83;;;18.00;99.90;;;;;;7369737;19;20023;-64
2023/07/15 03:37:32;;;;;;;7.05;3.30;;;18.00;99.90;;;;;;7372056;19;20478;-63
2023/07/15 03:39:58;;;;;;;4.97;3.13;;;17.90;99.90;;;;;;7370521;19;20390;-58
2023/07/15 03:42:26;;;;;;;6.15;3.30;;;17.90;99.90;;;;;;7374367;19;20023;-58
2023/07/15 03:44:53;;;;;;;5.85;3.45;;;17.90;99.90;;;;;;7369998;19;20014;-58
2023/07/15 03:47:20;;;;;;;7.30;3.30;;;17.90;99.90;;;;;;7365268;19;20307;-59
2023/07/15 03:49:47;;;;;;;6.85;3.90;;;17.90;99.90;;;;;;7372780;19;20030;-58
2023/07/15 03:52:13;;;;;;;7.05;3.67;;;17.90;99.90;;;;;;7367389;19;20026;-59
2023/07/15 03:54:40;;;;;;;5.72;3.38;;;17.80;99.90;;;;;;7373690;19;20378;-58
2023/07/15 03:57:06;;;;;;;5.85;3.25;;;17.80;99.90;;;;;;7367475;19;20029;-58
2023/07/15 03:59:32;;;;;;;7.07;3.03;;;17.80;99.90;;;;;;7370191;19;20490;-58
2023/07/15 04:01:59;;;;;;;5.90;3.28;;;17.80;99.90;;;;;;7371029;19;20022;-58
2023/07/15 04:04:29;;;;;;;6.63;3.10;;;17.80;99.90;;;;;;7374617;19;20029;-58
2023/07/15 04:06:59;;;;;;;5.15;3.00;;;17.80;99.90;;;;;;7367553;19;20478;-59
2023/07/15 04:09:27;;;;;;;5.93;2.92;;;17.80;99.90;;;;;;7370599;19;20025;-58
2023/07/15 04:11:56;;;;;;;8.13;3.03;;;17.80;99.90;;;;;;7373320;19;20088;-58
2023/07/15 04:14:22;;;;;;;5.45;2.95;;;17.90;99.90;;;;;;7372223;19;20499;-58
2023/07/15 04:16:48;;;;;;;3.58;2.47;;;17.90;99.90;;;;;;7373762;19;20034;-65
2023/07/15 04:19:15;;;;;;;6.10;3.25;;;17.90;99.90;;;;;;7368359;19;20015;-65
2023/07/15 04:21:41;;;;;;;4.55;3.22;;;17.90;99.90;;;;;;7368625;19;20035;-65
2023/07/15 04:24:07;;;;;;;7.47;3.17;;;17.90;99.90;;;;;;7370198;19;20029;-65
2023/07/15 04:26:33;;;;;;;6.38;3.35;;;17.90;99.90;;;;;;7371019;19;20021;-59
2023/07/15 04:29:00;;;;;;;6.63;2.90;;;18.00;99.90;;;;;;7370212;19;20506;-58
2023/07/15 04:31:26;;;;;;;5.70;2.80;;;18.00;99.90;;;;;;7370759;19;20351;-59
2023/07/15 04:33:54;;;;;;;4.40;2.80;;;18.10;99.90;;;;;;7371445;19;20103;-58
2023/07/15 04:36:21;;;;;;;6.60;3.00;;;18.10;99.90;;;;;;7372477;19;20078;-57
2023/07/15 04:38:48;;;;;;;7.95;3.30;;;18.20;99.90;;;;;;7370287;19;20018;-58
2023/07/15 04:41:14;;;;;;;7.20;2.90;;;18.30;99.90;;;;;;7366813;19;20026;-59
2023/07/15 04:43:41;;;;;;;4.78;2.58;;;18.40;99.90;;;;;;7371195;19;20634;-66
2023/07/15 04:46:07;;;;;;;4.90;3.17;;;18.40;99.90;;;;;;7373933;19;20395;-65
2023/07/15 04:48:34;;;;;;;5.80;2.83;;;18.50;99.90;;;;;;7366516;19;20630;-65
2023/07/15 04:51:00;;;;;;;5.03;2.75;;;18.60;99.90;;;;;;7368487;19;20510;-65
2023/07/15 04:53:26;;;;;;;5.65;2.88;;;18.70;99.90;;;;;;7370181;19;20105;-65
2023/07/15 04:55:53;;;;;;;5.40;2.65;;;18.80;99.90;;;;;;7367626;19;20062;-59
2023/07/15 04:58:19;;;;;;;4.93;2.75;;;18.90;99.90;;;;;;7368145;19;20375;-59
2023/07/15 05:00:46;;;;;;;6.57;2.83;;;18.90;99.90;;;;;;7368238;19;20071;-59
2023/07/15 05:03:13;;;;;;;6.60;3.20;;;19.00;99.90;;;;;;7370971;19;20492;-59
2023/07/15 05:05:40;;;;;;;7.78;2.78;;;19.10;99.90;;;;;;7375593;19;20018;-59
2023/07/15 05:08:18;;;;;;;6.43;2.97;;;19.20;99.90;;;;;;7379882;19;20015;-58
2023/07/15 05:10:48;;;;;;;7.38;2.92;;;19.30;99.90;;;;;;7377211;19;20022;-59
2023/07/15 05:13:16;;;;;;;6.45;3.00;;;19.50;99.90;;;;;;7380676;19;20031;-60
2023/07/15 05:15:43;;;;;;;7.78;3.30;;;19.80;99.90;;;;;;7376963;19;20053;-59
2023/07/15 05:18:10;;;;;;;6.82;5.00;;;20.20;99.90;;;;;;7381005;19;20011;-60
2023/07/15 05:20:37;;;;;;;9.52;3.60;;;20.50;99.90;;;;;;7374740;19;20082;-60
2023/07/15 05:23:04;;;;;;;7.43;3.67;;;20.90;99.90;;;;;;7378290;19;20489;-59
2023/07/15 05:25:32;;;;;;;8.13;6.30;;;21.20;99.90;;;;;;7378719;19;20398;-59
2023/07/15 05:27:58;;;;;;;4.93;2.65;;;21.20;99.90;;;;;;7379656;19;20748;-58
2023/07/15 05:30:28;;;;;;;6.43;3.00;;;21.20;99.90;;;;;;7377920;19;20045;-59
2023/07/15 05:32:54;;;;;;;5.65;3.92;;;21.50;99.90;;;;;;7376297;19;20894;-59
2023/07/15 05:35:20;;;;;;;5.93;3.75;;;21.70;99.90;;;;;;7375260;19;20607;-59
2023/07/15 05:37:46;;;;;;;20.27;18.23;;;22.10;99.90;;;;;;7373791;19;20032;-59
2023/07/15 05:40:13;;;;;;;6.38;3.20;;;22.40;99.90;;;;;;7374088;19;20042;-59
2023/07/15 05:42:40;;;;;;;10.60;6.95;;;22.60;99.90;;;;;;7375977;19;20474;-64
2023/07/15 05:45:07;;;;;;;5.82;4.47;;;22.80;99.90;;;;;;7374052;19;20354;-64
2023/07/15 05:47:34;;;;;;;9.13;5.13;;;23.00;99.90;;;;;;7372174;19;20022;-60
2023/07/15 05:50:01;;;;;;;7.90;5.47;;;23.20;99.90;;;;;;7372878;19;20015;-60
2023/07/15 05:52:28;;;;;;;6.78;2.42;;;23.40;99.90;;;;;;7375533;19;20022;-59
2023/07/15 05:54:54;;;;;;;10.48;5.70;;;23.40;99.90;;;;;;7375741;19;20457;-59
2023/07/15 05:57:21;;;;;;;6.70;4.50;;;23.60;99.90;;;;;;7374100;19;20590;-60
2023/07/15 05:59:47;;;;;;;7.90;4.63;;;23.80;99.90;;;;;;7376159;19;20051;-59
2023/07/15 06:02:13;;;;;;;6.03;3.10;;;24.10;99.90;;;;;;7377816;19;20452;-59
2023/07/15 06:04:39;;;;;;;7.53;2.67;;;24.30;99.90;;;;;;7374071;19;20365;-59
2023/07/15 06:07:06;;;;;;;5.95;2.70;;;24.10;99.90;;;;;;7376933;19;20026;-59
2023/07/15 06:09:32;;;;;;;7.72;3.17;;;23.90;99.90;;;;;;7375379;19;20432;-60
2023/07/15 06:11:58;;;;;;;6.72;3.15;;;23.80;99.90;;;;;;7380102;19;20078;-63
2023/07/15 06:14:29;;;;;;;10.15;8.23;;;23.70;99.90;;;;;;7377110;19;20545;-59
2023/07/15 06:16:58;;;;;;;29.00;25.92;;;23.90;99.90;;;;;;7377260;19;20029;-60
2023/07/15 06:19:24;;;;;;;4.63;2.38;;;24.10;99.90;;;;;;7375918;19;20639;-59
2023/07/15 06:21:51;;;;;;;5.25;2.75;;;24.40;99.90;;;;;;7378348;19;20026;-60
2023/07/15 06:24:18;;;;;;;5.00;3.05;;;24.50;99.90;;;;;;7378745;19;20034;-59
2023/07/15 06:26:44;;;;;;;8.57;4.72;;;24.80;99.90;;;;;;7372725;19;20081;-59
2023/07/15 06:29:10;;;;;;;5.40;3.15;;;24.80;99.90;;;;;;7375037;19;20022;-60
2023/07/15 06:31:36;;;;;;;6.50;2.75;;;24.70;99.90;;;;;;7375545;19;20386;-59
2023/07/15 06:34:03;;;;;;;5.30;2.95;;;24.80;99.90;;;;;;7375103;19;20017;-63
2023/07/15 06:36:29;;;;;;;4.63;3.28;;;24.90;99.90;;;;;;7369874;19;20022;-63
2023/07/15 06:38:56;;;;;;;4.47;2.17;;;25.10;99.90;;;;;;7375061;19;20018;-60
2023/07/15 06:41:22;;;;;;;3.53;2.47;;;25.20;99.90;;;;;;7373453;19;20022;-60
2023/07/15 06:43:50;;;;;;;9.20;5.40;;;25.20;99.90;;;;;;7375855;19;20095;-60
2023/07/15 06:46:16;;;;;;;8.20;2.22;;;25.10;99.90;;;;;;7376205;19;20041;-61
2023/07/15 06:48:44;;;;;;;6.72;4.57;;;25.30;99.90;;;;;;7374347;19;20042;-59
2023/07/15 06:51:14;;;;;;;9.88;6.18;;;25.50;99.90;;;;;;7377148;19;20054;-59
2023/07/15 06:53:41;;;;;;;19.52;17.33;;;25.60;99.90;;;;;;7372897;19;20079;-60
2023/07/15 06:56:07;;;;;;;19.42;17.42;;;25.70;99.90;;;;;;7376338;19;20439;-60
2023/07/15 06:58:34;;;;;;;33.75;30.33;;;26.00;99.90;;;;;;7372599;19;20417;-63
2023/07/15 07:01:00;;;;;;;9.07;4.00;;;26.20;99.90;;;;;;7372238;19;20018;-63
2023/07/15 07:03:27;;;;;;;7.38;4.50;;;26.30;99.90;;;;;;7374892;19;20849;-63
2023/07/15 07:05:54;;;;;;;10.35;7.55;;;26.20;99.90;;;;;;7375599;19;20544;-63
2023/07/15 07:08:23;;;;;;;7.78;3.15;;;26.30;99.90;;;;;;7376043;19;20014;-60
2023/07/15 07:10:52;;;;;;;18.52;16.27;;;26.40;99.90;;;;;;7376939;19;20671;-63
2023/07/15 07:13:19;;;;;;;9.45;5.07;;;26.40;99.90;;;;;;7375553;19;20572;-63
2023/07/15 07:15:47;;;;;;;16.40;14.82;;;26.40;99.90;;;;;;7374870;19;20760;-63
2023/07/15 07:18:14;;;;;;;4.90;3.25;;;26.40;99.90;;;;;;7374541;19;20021;-66
2023/07/15 07:20:41;;;;;;;6.35;4.75;;;26.40;99.90;;;;;;7378252;19;20516;-65
2023/07/15 07:23:08;;;;;;;7.07;5.07;;;26.50;99.90;;;;;;7376400;19;20073;-63
2023/07/15 07:25:34;;;;;;;24.77;22.45;;;26.50;99.90;;;;;;7375805;19;20625;-62
2023/07/15 07:28:00;;;;;;;4.75;2.70;;;26.40;99.90;;;;;;7370840;19;20037;-70
2023/07/15 07:30:27;;;;;;;8.65;7.10;;;26.20;99.90;;;;;;7375707;19;20015;-62
2023/07/15 07:32:53;;;;;;;22.95;20.60;;;26.30;99.90;;;;;;7377974;19;20045;-64
2023/07/15 07:35:19;;;;;;;9.00;5.30;;;26.60;99.90;;;;;;7374865;19;20561;-62
2023/07/15 07:37:46;;;;;;;5.90;3.20;;;26.60;99.90;;;;;;7375770;19;20018;-63
2023/07/15 07:40:12;;;;;;;5.70;3.38;;;26.90;99.90;;;;;;7360278;19;20018;-62
2023/07/15 07:42:39;;;;;;;15.15;12.80;;;26.90;99.90;;;;;;7366283;19;20022;-63
2023/07/15 07:45:16;;;;;;;10.38;6.47;;;26.80;99.90;;;;;;7371519;19;20019;-62
2023/07/15 07:47:42;;;;;;;8.85;6.43;;;26.90;99.90;;;;;;7370933;19;20018;-63
2023/07/15 07:50:09;;;;;;;5.25;3.00;;;26.90;99.90;;;;;;7371979;19;20031;-64
2023/07/15 07:52:35;;;;;;;4.70;2.38;;;26.70;99.90;;;;;;7375810;19;20776;-62
2023/07/15 07:55:03;;;;;;;12.13;10.85;;;26.80;99.90;;;;;;7372305;19;20022;-63
2023/07/15 07:57:32;;;;;;;6.38;5.28;;;27.10;99.90;;;;;;7369707;19;20611;-60
2023/07/15 07:59:59;;;;;;;7.97;5.53;;;27.30;99.90;;;;;;7376939;19;20029;-60
2023/07/15 08:02:26;;;;;;;6.60;4.80;;;27.40;99.90;;;;;;7372950;19;20029;-60
2023/07/15 08:04:52;;;;;;;5.47;4.18;;;27.60;99.90;;;;;;7369867;19;20036;-60
2023/07/15 08:07:19;;;;;;;3.72;2.35;;;27.40;99.90;;;;;;7372287;19;20389;-60
2023/07/15 08:09:45;;;;;;;7.07;5.68;;;27.60;99.90;;;;;;7372332;19;20018;-62
2023/07/15 08:12:11;;;;;;;4.38;2.33;;;27.90;99.90;;;;;;7367830;19;20502;-63
2023/07/15 08:14:37;;;;;;;3.47;2.08;;;27.90;99.90;;;;;;7371133;19;20026;-63
2023/07/15 08:17:05;;;;;;;4.65;2.08;;;28.00;99.90;;;;;;7371398;19;20082;-64
2023/07/15 08:19:31;;;;;;;5.65;1.92;;;28.20;99.90;;;;;;7371560;19;20051;-65
2023/07/15 08:21:57;;;;;;;4.65;2.80;;;28.50;99.90;;;;;;7367611;19;20019;-60
2023/07/15 08:24:23;;;;;;;6.30;2.65;;;28.30;99.90;;;;;;7373060;19;20097;-59
2023/07/15 08:26:49;;;;;;;4.47;3.58;;;27.90;99.90;;;;;;7369968;19;20437;-59
2023/07/15 08:29:16;;;;;;;18.15;16.48;;;27.80;99.90;;;;;;7372177;19;20028;-59
2023/07/15 08:31:42;;;;;;;8.52;6.75;;;27.70;99.90;;;;;;7367292;19;20068;-59
2023/07/15 08:34:08;;;;;;;6.78;4.47;;;28.10;99.90;;;;;;7371906;19;20108;-64
2023/07/15 08:36:36;;;;;;;9.07;6.75;;;28.30;99.90;;;;;;7372732;19;20050;-64
2023/07/15 08:39:02;;;;;;;8.73;5.47;;;28.50;99.90;;;;;;7374151;19;20019;-64
2023/07/15 08:41:29;;;;;;;7.78;5.65;;;28.50;99.90;;;;;;7381376;19;20517;-64
2023/07/15 08:43:56;;;;;;;9.85;3.67;;;28.60;99.90;;;;;;7380942;19;20014;-64
2023/07/15 08:46:32;;;;;;;7.30;5.90;;;28.60;99.90;;;;;;7379102;19;20592;-64
2023/07/15 08:49:00;;;;;;;4.55;1.73;;;29.20;99.90;;;;;;7377675;19;20014;-64
2023/07/15 08:51:35;;;;;;;4.53;2.83;;;29.50;99.90;;;;;;7379638;19;20023;-59
2023/07/15 08:54:03;;;;;;;8.02;3.10;;;29.80;99.90;;;;;;7375709;19;20029;-59
2023/07/15 08:56:32;;;;;;;4.97;2.10;;;29.90;99.90;;;;;;7380362;19;20041;-58
2023/07/15 08:58:58;;;;;;;5.05;2.60;;;29.90;99.90;;;;;;7375802;19;20114;-58
2023/07/15 09:01:24;;;;;;;5.07;2.60;;;29.80;98.40;;;;;;7376951;19;20122;-59
2023/07/15 09:03:50;;;;;;;4.25;1.63;;;29.80;98.10;;;;;;7382508;19;20011;-59
2023/07/15 09:06:17;;;;;;;5.70;4.38;;;30.10;97.60;;;;;;7378714;19;20362;-59
2023/07/15 09:08:49;;;;;;;13.73;12.25;;;29.70;96.90;;;;;;7376379;19;20011;-64
2023/07/15 09:11:15;;;;;;;8.70;4.68;;;29.20;97.90;;;;;;7380412;19;20339;-64
2023/07/15 09:13:43;;;;;;;13.88;12.57;;;29.40;98.30;;;;;;7377774;19;20029;-63
2023/07/15 09:16:10;;;;;;;6.85;5.20;;;29.90;98.70;;;;;;7379223;19;20014;-64
2023/07/15 09:18:41;;;;;;;3.78;2.83;;;29.90;98.70;;;;;;7381047;19;20082;-63
2023/07/15 09:21:15;;;;;;;4.80;2.65;;;30.00;96.80;;;;;;7371225;19;20075;-63
2023/07/15 09:23:44;;;;;;;7.38;4.72;;;30.10;96.50;;;;;;7372585;19;20025;-63
2023/07/15 09:26:12;;;;;;;5.00;1.85;;;30.20;95.60;;;;;;7379718;19;20059;-63
2023/07/15 09:28:41;;;;;;;6.22;2.17;;;30.20;94.60;;;;;;7377483;19;20702;-63
2023/07/15 09:31:07;;;;;;;3.17;1.55;;;30.50;94.40;;;;;;7378519;19;20026;-62
2023/07/15 09:33:39;;;;;;;5.53;3.95;;;30.40;94.30;;;;;;7378913;19;20828;-61
2023/07/15 09:36:06;;;;;;;6.25;4.03;;;29.30;94.00;;;;;;7375670;19;20352;-61
2023/07/15 09:38:38;;;;;;;3.80;2.20;;;29.10;94.30;;;;;;7376197;19;20420;-60
2023/07/15 09:41:07;;;;;;;3.95;2.83;;;28.60;95.50;;;;;;7374374;19;20014;-61
2023/07/15 09:43:48;;;;;;;5.60;2.97;;;28.30;96.70;;;;;;7364221;19;20010;-60
2023/07/15 09:46:17;;;;;;;5.18;2.45;;;28.70;97.00;;;;;;7369320;19;20521;-61
2023/07/15 09:48:50;;;;;;;3.72;1.92;;;28.80;96.90;;;;;;7367162;19;20357;-60
2023/07/15 09:51:17;;;;;;;6.18;2.33;;;28.90;95.60;;;;;;7373097;19;20042;-60
2023/07/15 09:53:52;;;;;;;4.57;1.90;;;28.90;96.60;;;;;;7372800;19;20486;-61
2023/07/15 09:56:22;;;;;;;5.90;4.47;;;29.00;96.80;;;;;;7371726;19;20022;-61
2023/07/15 09:58:52;;;;;;;3.38;2.42;;;29.20;96.00;;;;;;7376312;19;20728;-60
2023/07/15 10:01:43;;;;;;;4.72;3.08;;;29.50;96.80;;;;;;7368709;19;20014;-60
2023/07/15 10:04:46;;;;;;;6.72;2.92;;;30.10;96.80;;;;;;7373048;19;20029;-61
2023/07/15 10:07:12;;;;;;;6.10;2.00;;;30.10;94.90;;;;;;7374084;19;20018;-60
2023/07/15 10:09:39;;;;;;;4.00;1.80;;;31.00;95.10;;;;;;7370641;19;20018;-61
2023/07/15 10:12:06;;;;;;;5.38;1.80;;;30.60;94.10;;;;;;7373764;19;20033;-61
2023/07/15 10:14:33;;;;;;;9.52;3.78;;;30.50;93.40;;;;;;7372227;19;20374;-61
2023/07/15 10:17:11;;;;;;;5.35;2.50;;;29.90;92.70;;;;;;7365498;19;20018;-60
2023/07/15 10:19:51;;;;;;;6.03;4.35;;;30.10;93.60;;;;;;7366602;19;20041;-61
2023/07/15 10:22:21;;;;;;;8.43;5.47;;;29.60;92.60;;;;;;7365424;19;20022;-61
2023/07/15 10:24:55;;;;;;;4.13;2.22;;;29.00;93.10;;;;;;7369981;19;20326;-60
2023/07/15 10:27:28;;;;;;;6.32;2.83;;;28.80;94.00;;;;;;7369399;19;20086;-60
2023/07/15 10:30:23;;;;;;;5.43;2.55;;;28.60;93.50;;;;;;7373651;19;20014;-60
2023/07/15 10:33:08;;;;;;;8.30;7.38;;;28.90;95.00;;;;;;7368789;19;20022;-60
2023/07/15 10:35:47;;;;;;;7.80;4.18;;;28.90;94.80;;;;;;7369222;19;20014;-60
2023/07/15 10:38:23;;;;;;;4.75;3.13;;;29.70;94.90;;;;;;7375772;19;20086;-60
2023/07/15 10:40:51;;;;;;;6.55;2.75;;;29.50;94.10;;;;;;7364512;19;20285;-60
2023/07/15 10:43:23;;;;;;;2.88;1.80;;;29.40;94.90;;;;;;7373514;19;20022;-60
2023/07/15 10:45:53;;;;;;;3.72;1.90;;;29.20;94.00;;;;;;7372203;19;20552;-62
2023/07/15 10:48:22;;;;;;;3.47;1.35;;;28.90;95.00;;;;;;7379098;19;20492;-64
2023/07/15 10:50:53;;;;;;;2.72;1.88;;;29.10;94.40;;;;;;7366541;19;20018;-65
2023/07/15 10:53:29;;;;;;;2.55;1.58;;;29.40;95.10;;;;;;7370111;19;20037;-65
2023/07/15 10:56:15;;;;;;;2.78;1.50;;;29.70;94.70;;;;;;7368615;19;20338;-59
2023/07/15 10:58:42;;;;;;;4.57;2.00;;;29.20;93.60;;;;;;7367507;19;20341;-59
2023/07/15 11:01:10;;;;;;;2.70;1.17;;;29.40;94.40;;;;;;7368447;19;20129;-65
2023/07/15 11:03:44;;;;;;;4.55;1.80;;;29.30;94.70;;;;;;7370103;19;20014;-65
2023/07/15 11:06:11;;;;;;;4.15;1.52;;;29.50;95.30;;;;;;7370861;19;20367;-65
2023/07/15 11:08:39;;;;;;;3.88;1.88;;;29.50;94.60;;;;;;7372483;19;20018;-64
2023/07/15 11:11:07;;;;;;;3.45;1.42;;;29.50;94.70;;;;;;7367962;19;20015;-64
2023/07/15 11:13:39;;;;;;;4.90;1.50;;;29.20;93.60;;;;;;7370906;19;20022;-64
2023/07/15 11:16:05;;;;;;;2.42;1.00;;;29.20;94.40;;;;;;7373298;19;20023;-65
2023/07/15 11:18:31;;;;;;;3.45;1.50;;;29.10;93.90;;;;;;7370306;19;20015;-64
2023/07/15 11:21:00;;;;;;;4.20;1.52;;;28.80;93.90;;;;;;7370390;19;20496;-65
2023/07/15 11:23:31;;;;;;;2.83;1.20;;;28.70;94.90;;;;;;7367602;19;20033;-64
2023/07/15 11:25:57;;;;;;;;;;;29.40;95.10;;;;;;7371350;19;20436;-60
2023/07/15 11:28:24;;;;;;;7.50;1.70;;;29.90;93.30;;;;;;7371189;19;19939;-60
2023/07/15 11:30:50;;;;;;;3.22;1.40;;;30.50;94.00;;;;;;7372059;19;20018;-60
2023/07/15 11:33:17;;;;;;;5.47;1.77;;;30.00;93.10;;;;;;7365735;19;20021;-60
2023/07/15 11:35:44;;;;;;;6.05;1.50;;;29.20;92.90;;;;;;7366779;19;20030;-69
2023/07/15 11:38:10;;;;;;;4.57;1.40;;;29.20;94.20;;;;;;7366049;19;20495;-65
2023/07/15 11:40:47;;;;;;;3.20;1.98;;;29.30;95.00;;;;;;7364277;19;20023;-63
2023/07/15 11:43:15;;;;;;;3.55;1.65;;;29.10;95.00;;;;;;7365318;19;20045;-64
2023/07/15 11:45:42;;;;;;;4.80;1.60;;;28.90;95.20;;;;;;7369423;19;20491;-59
2023/07/15 11:48:09;;;;;;;5.90;4.53;;;28.70;96.00;;;;;;7369523;19;20026;-59
2023/07/15 11:50:36;;;;;;;5.18;1.95;;;28.40;96.90;;;;;;7370185;19;20014;-59
2023/07/15 11:53:02;;;;;;;3.63;1.70;;;27.80;95.70;;;;;;7365142;19;20025;-60
2023/07/15 11:55:30;;;;;;;5.22;2.00;;;27.70;96.50;;;;;;7374629;19;20681;-60
2023/07/15 11:57:56;;;;;;;3.47;1.50;;;27.30;96.70;;;;;;7370045;19;20014;-58
2023/07/15 12:00:33;;;;;;;6.22;2.25;;;27.00;98.40;;;;;;7374375;19;20018;-58
2023/07/15 12:03:09;;;;;;;5.53;2.10;;;27.00;99.90;;;;;;7368933;19;20019;-58
2023/07/15 12:05:39;;;;;;;4.60;2.08;;;27.00;99.90;;;;;;7367036;19;20014;-58
2023/07/15 12:08:12;;;;;;;5.22;2.05;;;27.10;99.90;;;;;;7367652;19;20500;-59
2023/07/15 12:10:54;;;;;;;5.13;2.22;;;27.30;99.90;;;;;;7369320;19;20502;-59
2023/07/15 12:13:20;;;;;;;2.67;2.20;;;27.90;99.90;;;;;;7369463;19;20078;-59
2023/07/15 12:15:47;;;;;;;5.68;2.15;;;28.10;99.70;;;;;;7371564;19;20026;-59
2023/07/15 12:18:13;;;;;;;6.20;1.52;;;28.30;99.90;;;;;;7376044;19;20470;-59
2023/07/15 12:20:39;;;;;;;4.47;1.65;;;28.40;99.80;;;;;;7378079;19;20621;-59
2023/07/15 12:23:08;;;;;;;4.32;1.55;;;29.00;99.10;;;;;;7378092;19;20484;-60
2023/07/15 12:25:34;;;;;;;2.58;1.30;;;29.50;98.30;;;;;;7377279;19;20602;-60
2023/07/15 12:28:00;;;;;;;4.20;1.58;;;29.90;97.80;;;;;;7375220;19;20018;-60
2023/07/15 12:30:26;;;;;;;7.10;1.90;;;29.40;96.80;;;;;;7375474;19;20014;-60
2023/07/15 12:32:53;;;;;;;4.20;1.67;;;29.00;96.60;;;;;;7377720;19;20089;-60
2023/07/15 12:35:19;;;;;;;4.93;2.00;;;28.40;95.60;;;;;;7377238;19;20019;-60
2023/07/15 12:37:45;;;;;;;6.38;1.92;;;28.00;95.90;;;;;;7372803;19;20042;-59
2023/07/15 12:40:12;;;;;;;5.20;1.70;;;27.90;95.50;;;;;;7374679;19;20055;-59
2023/07/15 12:42:39;;;;;;;2.90;1.30;;;27.60;95.10;;;;;;7376894;19;20021;-60
2023/07/15 12:45:07;;;;;;;5.28;2.65;;;27.80;95.40;;;;;;7376485;19;20014;-61
2023/07/15 12:47:34;;;;;;;3.22;1.90;;;27.60;96.00;;;;;;7378425;19;20029;-61
2023/07/15 12:50:00;;;;;;;4.70;1.48;;;27.60;95.60;;;;;;7378016;19;20418;-61
2023/07/15 12:52:26;;;;;;;12.48;9.35;;;28.20;94.40;;;;;;7377474;19;20025;-61